sensor_id;sensor_type;location;lat;lon;timestamp;P1;durP1;ratioP1;P2;durP2;ratioP2
65182;SDS011;51771;51.068;-1.780;2023-10-13T00:01:48;3.38;;;0.52;;
65182;SDS011;51771;51.068;-1.780;2023-10-13T00:04:16;2.00;;;0.60;;
65182;SDS011;51771;51.068;-1.780;2023-10-13T00:06:42;1.80;;;0.60;;
65182;SDS011;51771;51.068;-1.780;2023-10-13T00:09:07;4.00;;;1.15;;
65182;SDS011;51771;51.068;-1.780;2023-10-13T00:11:40;6.90;;;1.92;;
65182;SDS011;51771;51.068;-1.780;2023-10-13T00:14:06;6.40;;;2.20;;
65182;SDS011;51771;51.068;-1.780;2023-10-13T00:16:34;6.75;;;2.17;;
65182;SDS011;51771;51.068;-1.780;2023-10-13T00:19:01;7.60;;;3.20;;
65182;SDS011;51771;51.068;-1.780;2023-10-13T00:21:26;9.80;;;2.15;;
65182;SDS011;51771;51.068;-1.780;2023-10-13T00:23:57;7.25;;;2.10;;
65182;SDS011;51771;51.068;-1.780;2023-10-13T00:26:26;7.97;;;2.58;;
65182;SDS011;51771;51.068;-1.780;2023-10-13T00:31:37;9.32;;;2.40;;
65182;SDS011;51771;51.068;-1.780;2023-10-13T00:34:03;7.43;;;3.08;;
65182;SDS011;51771;51.068;-1.780;2023-10-13T00:36:49;7.95;;;2.60;;
65182;SDS011;51771;51.068;-1.780;2023-10-13T00:39:34;14.13;;;3.13;;
65182;SDS011;51771;51.068;-1.780;2023-10-13T00:42:02;9.02;;;2.97;;
65182;SDS011;51771;51.068;-1.780;2023-10-13T00:44:31;10.30;;;3.40;;
65182;SDS011;51771;51.068;-1.780;2023-10-13T00:47:08;11.27;;;3.90;;
65182;SDS011;51771;51.068;-1.780;2023-10-13T00:49:37;9.15;;;3.15;;
65182;SDS011;51771;51.068;-1.780;2023-10-13T00:52:05;11.70;;;3.58;;
65182;SDS011;51771;51.068;-1.780;2023-10-13T00:54:30;16.25;;;5.20;;
65182;SDS011;51771;51.068;-1.780;2023-10-13T00:56:55;12.03;;;3.40;;
65182;SDS011;51771;51.068;-1.780;2023-10-13T00:59:36;6.82;;;3.17;;
65182;SDS011;51771;51.068;-1.780;2023-10-13T01:02:02;13.20;;;4.10;;
65182;SDS011;51771;51.068;-1.780;2023-10-13T01:04:47;11.77;;;3.63;;
65182;SDS011;51771;51.068;-1.780;2023-10-13T01:07:13;14.65;;;4.40;;
65182;SDS011;51771;51.068;-1.780;2023-10-13T01:09:41;7.93;;;3.47;;
65182;SDS011;51771;51.068;-1.780;2023-10-13T01:12:07;11.23;;;4.10;;
65182;SDS011;51771;51.068;-1.780;2023-10-13T01:14:33;11.27;;;3.88;;
65182;SDS011;51771;51.068;-1.780;2023-10-13T01:17:00;12.50;;;3.80;;
65182;SDS011;51771;51.068;-1.780;2023-10-13T01:19:26;13.13;;;4.05;;
65182;SDS011;51771;51.068;-1.780;2023-10-13T01:21:52;14.85;;;3.78;;
65182;SDS011;51771;51.068;-1.780;2023-10-13T01:24:29;11.57;;;3.75;;
65182;SDS011;51771;51.068;-1.780;2023-10-13T01:26:59;11.68;;;3.85;;
65182;SDS011;51771;51.068;-1.780;2023-10-13T01:29:32;20.05;;;4.65;;
65182;SDS011;51771;51.068;-1.780;2023-10-13T01:31:58;13.52;;;3.90;;
65182;SDS011;51771;51.068;-1.780;2023-10-13T01:34:23;16.87;;;4.27;;
65182;SDS011;51771;51.068;-1.780;2023-10-13T01:36:49;14.33;;;4.57;;
65182;SDS011;51771;51.068;-1.780;2023-10-13T01:39:16;15.77;;;4.57;;
65182;SDS011;51771;51.068;-1.780;2023-10-13T01:41:42;17.38;;;4.45;;
65182;SDS011;51771;51.068;-1.780;2023-10-13T01:44:08;18.83;;;5.68;;
65182;SDS011;51771;51.068;-1.780;2023-10-13T01:46:36;20.50;;;4.90;;
65182;SDS011;51771;51.068;-1.780;2023-10-13T01:49:02;28.48;;;6.82;;
65182;SDS011;51771;51.068;-1.780;2023-10-13T01:51:27;14.85;;;4.88;;
65182;SDS011;51771;51.068;-1.780;2023-10-13T01:53:53;14.30;;;5.55;;
65182;SDS011;51771;51.068;-1.780;2023-10-13T01:56:21;11.30;;;4.65;;
65182;SDS011;51771;51.068;-1.780;2023-10-13T01:58:48;10.98;;;4.18;;
65182;SDS011;51771;51.068;-1.780;2023-10-13T02:01:13;18.88;;;5.32;;
65182;SDS011;51771;51.068;-1.780;2023-10-13T02:03:38;16.70;;;6.27;;
65182;SDS011;51771;51.068;-1.780;2023-10-13T02:06:11;17.95;;;6.00;;
65182;SDS011;51771;51.068;-1.780;2023-10-13T02:08:42;20.55;;;6.07;;
65182;SDS011;51771;51.068;-1.780;2023-10-13T02:11:08;15.45;;;5.70;;
65182;SDS011;51771;51.068;-1.780;2023-10-13T02:13:34;17.40;;;5.88;;
65182;SDS011;51771;51.068;-1.780;2023-10-13T02:16:06;17.40;;;5.55;;
65182;SDS011;51771;51.068;-1.780;2023-10-13T02:18:32;15.02;;;5.70;;
65182;SDS011;51771;51.068;-1.780;2023-10-13T02:23:37;14.27;;;5.43;;
65182;SDS011;51771;51.068;-1.780;2023-10-13T02:26:08;28.42;;;7.00;;
65182;SDS011;51771;51.068;-1.780;2023-10-13T02:28:38;21.58;;;6.70;;
65182;SDS011;51771;51.068;-1.780;2023-10-13T02:31:03;21.35;;;6.43;;
65182;SDS011;51771;51.068;-1.780;2023-10-13T02:33:29;20.80;;;6.35;;
65182;SDS011;51771;51.068;-1.780;2023-10-13T02:36:00;14.88;;;6.25;;
65182;SDS011;51771;51.068;-1.780;2023-10-13T02:38:29;19.15;;;5.65;;
65182;SDS011;51771;51.068;-1.780;2023-10-13T02:41:04;21.42;;;6.38;;
65182;SDS011;51771;51.068;-1.780;2023-10-13T02:43:34;14.07;;;5.32;;
65182;SDS011;51771;51.068;-1.780;2023-10-13T02:46:00;16.48;;;4.97;;
65182;SDS011;51771;51.068;-1.780;2023-10-13T02:48:26;22.42;;;5.90;;
65182;SDS011;51771;51.068;-1.780;2023-10-13T02:50:57;16.67;;;4.82;;
65182;SDS011;51771;51.068;-1.780;2023-10-13T02:53:22;18.23;;;6.50;;
65182;SDS011;51771;51.068;-1.780;2023-10-13T02:55:50;18.30;;;5.03;;
65182;SDS011;51771;51.068;-1.780;2023-10-13T02:58:16;18.38;;;5.80;;
65182;SDS011;51771;51.068;-1.780;2023-10-13T03:00:42;27.17;;;5.65;;
65182;SDS011;51771;51.068;-1.780;2023-10-13T03:03:08;14.00;;;5.63;;
65182;SDS011;51771;51.068;-1.780;2023-10-13T03:05:36;20.63;;;5.38;;
65182;SDS011;51771;51.068;-1.780;2023-10-13T03:08:04;13.35;;;4.85;;
65182;SDS011;51771;51.068;-1.780;2023-10-13T03:10:30;20.48;;;5.53;;
65182;SDS011;51771;51.068;-1.780;2023-10-13T03:12:55;15.63;;;5.68;;
65182;SDS011;51771;51.068;-1.780;2023-10-13T03:15:20;22.63;;;5.53;;
65182;SDS011;51771;51.068;-1.780;2023-10-13T03:17:53;20.60;;;6.07;;
65182;SDS011;51771;51.068;-1.780;2023-10-13T03:20:20;14.27;;;5.82;;
65182;SDS011;51771;51.068;-1.780;2023-10-13T03:22:52;20.83;;;5.78;;
65182;SDS011;51771;51.068;-1.780;2023-10-13T03:25:17;17.77;;;5.80;;
65182;SDS011;51771;51.068;-1.780;2023-10-13T03:27:49;15.70;;;5.10;;
65182;SDS011;51771;51.068;-1.780;2023-10-13T03:30:17;16.83;;;5.25;;
65182;SDS011;51771;51.068;-1.780;2023-10-13T03:32:43;19.60;;;6.22;;
65182;SDS011;51771;51.068;-1.780;2023-10-13T03:35:11;18.00;;;5.03;;
65182;SDS011;51771;51.068;-1.780;2023-10-13T03:37:38;12.98;;;4.90;;
65182;SDS011;51771;51.068;-1.780;2023-10-13T03:40:10;13.20;;;4.35;;
65182;SDS011;51771;51.068;-1.780;2023-10-13T03:42:44;14.95;;;4.55;;
65182;SDS011;51771;51.068;-1.780;2023-10-13T03:45:22;17.15;;;4.05;;
65182;SDS011;51771;51.068;-1.780;2023-10-13T03:47:49;19.30;;;4.88;;
65182;SDS011;51771;51.068;-1.780;2023-10-13T03:50:16;13.82;;;4.93;;
65182;SDS011;51771;51.068;-1.780;2023-10-13T03:52:47;15.23;;;4.45;;
65182;SDS011;51771;51.068;-1.780;2023-10-13T03:55:13;17.95;;;4.75;;
65182;SDS011;51771;51.068;-1.780;2023-10-13T03:57:42;15.38;;;4.82;;
65182;SDS011;51771;51.068;-1.780;2023-10-13T04:00:08;15.68;;;4.45;;
65182;SDS011;51771;51.068;-1.780;2023-10-13T04:02:34;10.68;;;3.95;;
65182;SDS011;51771;51.068;-1.780;2023-10-13T04:05:01;18.92;;;4.43;;
65182;SDS011;51771;51.068;-1.780;2023-10-13T04:07:33;11.90;;;3.65;;
65182;SDS011;51771;51.068;-1.780;2023-10-13T04:10:04;15.68;;;4.63;;
65182;SDS011;51771;51.068;-1.780;2023-10-13T04:12:56;14.75;;;4.22;;
65182;SDS011;51771;51.068;-1.780;2023-10-13T04:15:42;13.07;;;3.83;;
65182;SDS011;51771;51.068;-1.780;2023-10-13T04:18:27;16.50;;;3.88;;
65182;SDS011;51771;51.068;-1.780;2023-10-13T04:21:11;17.48;;;4.00;;
65182;SDS011;51771;51.068;-1.780;2023-10-13T04:24:03;16.13;;;4.82;;
65182;SDS011;51771;51.068;-1.780;2023-10-13T04:26:54;20.20;;;4.78;;
65182;SDS011;51771;51.068;-1.780;2023-10-13T04:29:37;12.40;;;3.88;;
65182;SDS011;51771;51.068;-1.780;2023-10-13T04:32:21;15.65;;;3.95;;
65182;SDS011;51771;51.068;-1.780;2023-10-13T04:35:07;16.75;;;4.00;;
65182;SDS011;51771;51.068;-1.780;2023-10-13T04:37:43;16.10;;;3.83;;
65182;SDS011;51771;51.068;-1.780;2023-10-13T04:40:15;19.50;;;4.78;;
65182;SDS011;51771;51.068;-1.780;2023-10-13T04:42:42;18.58;;;4.28;;
65182;SDS011;51771;51.068;-1.780;2023-10-13T04:45:22;19.90;;;4.53;;
65182;SDS011;51771;51.068;-1.780;2023-10-13T04:48:17;22.35;;;4.20;;
65182;SDS011;51771;51.068;-1.780;2023-10-13T04:50:47;20.42;;;4.60;;
65182;SDS011;51771;51.068;-1.780;2023-10-13T04:53:15;18.35;;;4.78;;
65182;SDS011;51771;51.068;-1.780;2023-10-13T04:55:59;17.48;;;3.53;;
65182;SDS011;51771;51.068;-1.780;2023-10-13T04:58:33;16.77;;;4.45;;
65182;SDS011;51771;51.068;-1.780;2023-10-13T05:01:04;17.83;;;4.83;;
65182;SDS011;51771;51.068;-1.780;2023-10-13T05:03:49;15.07;;;5.10;;
65182;SDS011;51771;51.068;-1.780;2023-10-13T05:06:32;16.13;;;4.47;;
65182;SDS011;51771;51.068;-1.780;2023-10-13T05:09:24;20.63;;;5.25;;
65182;SDS011;51771;51.068;-1.780;2023-10-13T05:12:08;23.17;;;5.30;;
65182;SDS011;51771;51.068;-1.780;2023-10-13T05:14:52;16.95;;;4.50;;
65182;SDS011;51771;51.068;-1.780;2023-10-13T05:17:35;14.75;;;5.18;;
65182;SDS011;51771;51.068;-1.780;2023-10-13T05:20:19;17.95;;;3.80;;
65182;SDS011;51771;51.068;-1.780;2023-10-13T05:23:03;17.77;;;4.57;;
65182;SDS011;51771;51.068;-1.780;2023-10-13T05:25:47;22.65;;;4.63;;
65182;SDS011;51771;51.068;-1.780;2023-10-13T05:28:31;18.88;;;5.60;;
65182;SDS011;51771;51.068;-1.780;2023-10-13T05:31:15;22.83;;;4.50;;
65182;SDS011;51771;51.068;-1.780;2023-10-13T05:33:59;25.60;;;5.25;;
65182;SDS011;51771;51.068;-1.780;2023-10-13T05:36:43;20.90;;;3.88;;
65182;SDS011;51771;51.068;-1.780;2023-10-13T05:39:26;16.75;;;4.15;;
65182;SDS011;51771;51.068;-1.780;2023-10-13T05:42:10;17.75;;;4.22;;
65182;SDS011;51771;51.068;-1.780;2023-10-13T05:44:54;15.10;;;3.95;;
65182;SDS011;51771;51.068;-1.780;2023-10-13T05:47:38;21.77;;;3.95;;
65182;SDS011;51771;51.068;-1.780;2023-10-13T05:50:07;16.75;;;4.32;;
65182;SDS011;51771;51.068;-1.780;2023-10-13T05:52:53;14.73;;;3.83;;
65182;SDS011;51771;51.068;-1.780;2023-10-13T05:55:24;21.08;;;4.50;;
65182;SDS011;51771;51.068;-1.780;2023-10-13T05:58:08;23.17;;;5.72;;
65182;SDS011;51771;51.068;-1.780;2023-10-13T06:00:53;22.00;;;4.53;;
65182;SDS011;51771;51.068;-1.780;2023-10-13T06:03:37;20.13;;;4.70;;
65182;SDS011;51771;51.068;-1.780;2023-10-13T06:06:34;14.80;;;4.45;;
65182;SDS011;51771;51.068;-1.780;2023-10-13T06:09:18;12.88;;;3.80;;
65182;SDS011;51771;51.068;-1.780;2023-10-13T06:12:02;23.92;;;5.28;;
65182;SDS011;51771;51.068;-1.780;2023-10-13T06:14:46;15.55;;;4.45;;
65182;SDS011;51771;51.068;-1.780;2023-10-13T06:17:47;17.27;;;4.57;;
65182;SDS011;51771;51.068;-1.780;2023-10-13T06:20:31;18.52;;;4.32;;
65182;SDS011;51771;51.068;-1.780;2023-10-13T06:23:14;18.20;;;4.95;;
65182;SDS011;51771;51.068;-1.780;2023-10-13T06:25:58;21.48;;;5.10;;
65182;SDS011;51771;51.068;-1.780;2023-10-13T06:28:42;29.83;;;5.35;;
65182;SDS011;51771;51.068;-1.780;2023-10-13T06:31:09;23.90;;;6.03;;
65182;SDS011;51771;51.068;-1.780;2023-10-13T06:33:46;28.52;;;6.70;;
65182;SDS011;51771;51.068;-1.780;2023-10-13T06:36:12;26.35;;;5.75;;
65182;SDS011;51771;51.068;-1.780;2023-10-13T06:38:37;21.95;;;6.43;;
65182;SDS011;51771;51.068;-1.780;2023-10-13T06:41:03;21.83;;;5.50;;
65182;SDS011;51771;51.068;-1.780;2023-10-13T06:43:36;19.38;;;5.50;;
65182;SDS011;51771;51.068;-1.780;2023-10-13T06:48:30;23.05;;;4.72;;
65182;SDS011;51771;51.068;-1.780;2023-10-13T06:51:01;17.08;;;5.32;;
65182;SDS011;51771;51.068;-1.780;2023-10-13T06:53:45;15.13;;;4.30;;
65182;SDS011;51771;51.068;-1.780;2023-10-13T06:56:16;22.08;;;5.07;;
65182;SDS011;51771;51.068;-1.780;2023-10-13T06:58:50;12.73;;;4.45;;
65182;SDS011;51771;51.068;-1.780;2023-10-13T07:01:16;15.60;;;4.30;;
65182;SDS011;51771;51.068;-1.780;2023-10-13T07:03:46;16.88;;;4.70;;
65182;SDS011;51771;51.068;-1.780;2023-10-13T07:06:17;17.20;;;4.95;;
65182;SDS011;51771;51.068;-1.780;2023-10-13T07:08:44;14.23;;;5.07;;
65182;SDS011;51771;51.068;-1.780;2023-10-13T07:11:14;23.05;;;4.03;;
65182;SDS011;51771;51.068;-1.780;2023-10-13T07:13:44;16.27;;;4.80;;
65182;SDS011;51771;51.068;-1.780;2023-10-13T07:16:15;18.33;;;5.28;;
65182;SDS011;51771;51.068;-1.780;2023-10-13T07:18:40;14.27;;;5.80;;
65182;SDS011;51771;51.068;-1.780;2023-10-13T07:23:40;16.48;;;5.53;;
65182;SDS011;51771;51.068;-1.780;2023-10-13T07:26:08;20.08;;;6.00;;
65182;SDS011;51771;51.068;-1.780;2023-10-13T07:28:33;20.17;;;5.95;;
65182;SDS011;51771;51.068;-1.780;2023-10-13T07:31:04;19.70;;;5.70;;
65182;SDS011;51771;51.068;-1.780;2023-10-13T07:33:29;23.95;;;5.50;;
65182;SDS011;51771;51.068;-1.780;2023-10-13T07:36:03;21.98;;;6.05;;
65182;SDS011;51771;51.068;-1.780;2023-10-13T07:38:57;21.08;;;6.70;;
65182;SDS011;51771;51.068;-1.780;2023-10-13T07:41:41;17.65;;;5.32;;
65182;SDS011;51771;51.068;-1.780;2023-10-13T07:44:07;15.93;;;5.93;;
65182;SDS011;51771;51.068;-1.780;2023-10-13T07:46:32;14.80;;;6.03;;
65182;SDS011;51771;51.068;-1.780;2023-10-13T07:49:00;23.15;;;6.13;;
65182;SDS011;51771;51.068;-1.780;2023-10-13T07:51:35;20.45;;;6.00;;
65182;SDS011;51771;51.068;-1.780;2023-10-13T07:54:10;24.42;;;6.15;;
65182;SDS011;51771;51.068;-1.780;2023-10-13T07:56:36;16.40;;;5.38;;
65182;SDS011;51771;51.068;-1.780;2023-10-13T07:59:04;32.60;;;7.25;;
65182;SDS011;51771;51.068;-1.780;2023-10-13T08:01:31;22.02;;;6.20;;
65182;SDS011;51771;51.068;-1.780;2023-10-13T08:03:57;17.90;;;6.22;;
65182;SDS011;51771;51.068;-1.780;2023-10-13T08:06:36;27.50;;;5.55;;
65182;SDS011;51771;51.068;-1.780;2023-10-13T08:09:02;20.08;;;6.00;;
65182;SDS011;51771;51.068;-1.780;2023-10-13T08:11:34;21.95;;;6.80;;
65182;SDS011;51771;51.068;-1.780;2023-10-13T08:14:02;17.95;;;5.65;;
65182;SDS011;51771;51.068;-1.780;2023-10-13T08:16:42;24.67;;;7.05;;
65182;SDS011;51771;51.068;-1.780;2023-10-13T08:19:25;22.38;;;7.22;;
65182;SDS011;51771;51.068;-1.780;2023-10-13T08:21:57;26.05;;;6.57;;
65182;SDS011;51771;51.068;-1.780;2023-10-13T08:24:46;18.13;;;6.47;;
65182;SDS011;51771;51.068;-1.780;2023-10-13T08:27:12;22.25;;;5.78;;
65182;SDS011;51771;51.068;-1.780;2023-10-13T08:29:41;20.77;;;6.22;;
65182;SDS011;51771;51.068;-1.780;2023-10-13T08:32:24;28.25;;;6.70;;
65182;SDS011;51771;51.068;-1.780;2023-10-13T08:34:52;17.67;;;5.60;;
65182;SDS011;51771;51.068;-1.780;2023-10-13T08:37:18;20.40;;;6.40;;
65182;SDS011;51771;51.068;-1.780;2023-10-13T08:39:46;21.95;;;6.65;;
65182;SDS011;51771;51.068;-1.780;2023-10-13T08:44:59;20.13;;;5.22;;
65182;SDS011;51771;51.068;-1.780;2023-10-13T08:47:29;17.58;;;6.97;;
65182;SDS011;51771;51.068;-1.780;2023-10-13T08:50:01;19.48;;;6.57;;
65182;SDS011;51771;51.068;-1.780;2023-10-13T08:52:35;27.77;;;7.00;;
65182;SDS011;51771;51.068;-1.780;2023-10-13T08:55:11;25.85;;;7.97;;
65182;SDS011;51771;51.068;-1.780;2023-10-13T08:57:57;20.88;;;6.72;;
65182;SDS011;51771;51.068;-1.780;2023-10-13T09:00:28;16.02;;;6.63;;
65182;SDS011;51771;51.068;-1.780;2023-10-13T09:03:20;16.23;;;6.50;;
65182;SDS011;51771;51.068;-1.780;2023-10-13T09:06:03;19.00;;;6.57;;
65182;SDS011;51771;51.068;-1.780;2023-10-13T09:11:15;22.20;;;6.85;;
65182;SDS011;51771;51.068;-1.780;2023-10-13T09:13:45;21.30;;;10.65;;
65182;SDS011;51771;51.068;-1.780;2023-10-13T09:16:11;22.55;;;7.18;;
65182;SDS011;51771;51.068;-1.780;2023-10-13T09:19:02;23.77;;;7.03;;
65182;SDS011;51771;51.068;-1.780;2023-10-13T09:21:37;20.73;;;5.03;;
65182;SDS011;51771;51.068;-1.780;2023-10-13T09:24:05;21.02;;;6.18;;
65182;SDS011;51771;51.068;-1.780;2023-10-13T09:26:46;33.80;;;8.98;;
65182;SDS011;51771;51.068;-1.780;2023-10-13T09:29:17;20.65;;;6.30;;
65182;SDS011;51771;51.068;-1.780;2023-10-13T09:31:44;23.05;;;6.15;;
65182;SDS011;51771;51.068;-1.780;2023-10-13T09:34:10;15.10;;;6.82;;
65182;SDS011;51771;51.068;-1.780;2023-10-13T09:36:35;26.15;;;6.68;;
65182;SDS011;51771;51.068;-1.780;2023-10-13T09:39:01;25.95;;;6.35;;
65182;SDS011;51771;51.068;-1.780;2023-10-13T09:41:39;21.52;;;6.70;;
65182;SDS011;51771;51.068;-1.780;2023-10-13T09:44:05;15.10;;;5.72;;
65182;SDS011;51771;51.068;-1.780;2023-10-13T09:46:33;21.88;;;6.57;;
65182;SDS011;51771;51.068;-1.780;2023-10-13T09:49:09;16.45;;;5.82;;
65182;SDS011;51771;51.068;-1.780;2023-10-13T09:51:40;28.90;;;6.53;;
65182;SDS011;51771;51.068;-1.780;2023-10-13T09:56:50;20.00;;;5.75;;
65182;SDS011;51771;51.068;-1.780;2023-10-13T09:59:29;23.58;;;5.60;;
65182;SDS011;51771;51.068;-1.780;2023-10-13T10:01:59;17.60;;;5.05;;
65182;SDS011;51771;51.068;-1.780;2023-10-13T10:04:33;26.90;;;5.22;;
65182;SDS011;51771;51.068;-1.780;2023-10-13T10:07:00;18.20;;;5.25;;
65182;SDS011;51771;51.068;-1.780;2023-10-13T10:09:35;27.00;;;5.07;;
65182;SDS011;51771;51.068;-1.780;2023-10-13T10:17:21;17.13;;;4.70;;
65182;SDS011;51771;51.068;-1.780;2023-10-13T10:19:47;13.98;;;4.18;;
65182;SDS011;51771;51.068;-1.780;2023-10-13T10:22:12;18.30;;;4.60;;
65182;SDS011;51771;51.068;-1.780;2023-10-13T10:24:55;16.10;;;3.88;;
65182;SDS011;51771;51.068;-1.780;2023-10-13T10:27:24;21.55;;;4.22;;
65182;SDS011;51771;51.068;-1.780;2023-10-13T10:29:53;15.50;;;3.83;;
65182;SDS011;51771;51.068;-1.780;2023-10-13T10:32:19;14.45;;;4.43;;
65182;SDS011;51771;51.068;-1.780;2023-10-13T10:34:44;11.80;;;4.00;;
65182;SDS011;51771;51.068;-1.780;2023-10-13T10:37:09;14.88;;;4.45;;
65182;SDS011;51771;51.068;-1.780;2023-10-13T10:39:36;19.40;;;4.78;;
65182;SDS011;51771;51.068;-1.780;2023-10-13T10:42:11;19.02;;;3.97;;
65182;SDS011;51771;51.068;-1.780;2023-10-13T10:44:51;12.93;;;3.33;;
65182;SDS011;51771;51.068;-1.780;2023-10-13T10:47:20;15.55;;;3.97;;
65182;SDS011;51771;51.068;-1.780;2023-10-13T10:50:01;14.30;;;4.18;;
65182;SDS011;51771;51.068;-1.780;2023-10-13T10:52:44;13.82;;;4.30;;
65182;SDS011;51771;51.068;-1.780;2023-10-13T10:55:09;18.20;;;3.85;;
65182;SDS011;51771;51.068;-1.780;2023-10-13T10:57:39;19.85;;;4.03;;
65182;SDS011;51771;51.068;-1.780;2023-10-13T11:00:17;17.80;;;3.70;;
65182;SDS011;51771;51.068;-1.780;2023-10-13T11:02:52;19.13;;;3.88;;
65182;SDS011;51771;51.068;-1.780;2023-10-13T11:05:17;21.92;;;3.47;;
65182;SDS011;51771;51.068;-1.780;2023-10-13T11:07:45;18.60;;;4.00;;
65182;SDS011;51771;51.068;-1.780;2023-10-13T11:10:14;18.73;;;3.53;;
65182;SDS011;51771;51.068;-1.780;2023-10-13T11:12:55;15.55;;;4.00;;
65182;SDS011;51771;51.068;-1.780;2023-10-13T11:15:21;13.68;;;3.70;;
65182;SDS011;51771;51.068;-1.780;2023-10-13T11:17:58;20.92;;;3.75;;
65182;SDS011;51771;51.068;-1.780;2023-10-13T11:20:23;15.25;;;3.00;;
65182;SDS011;51771;51.068;-1.780;2023-10-13T11:23:14;12.48;;;2.80;;
65182;SDS011;51771;51.068;-1.780;2023-10-13T11:25:40;14.88;;;2.70;;
65182;SDS011;51771;51.068;-1.780;2023-10-13T11:28:15;14.27;;;2.38;;
65182;SDS011;51771;51.068;-1.780;2023-10-13T11:30:44;13.88;;;2.40;;
65182;SDS011;51771;51.068;-1.780;2023-10-13T11:33:16;11.05;;;2.40;;
65182;SDS011;51771;51.068;-1.780;2023-10-13T11:36:01;14.32;;;2.67;;
65182;SDS011;51771;51.068;-1.780;2023-10-13T11:38:29;13.75;;;2.50;;
65182;SDS011;51771;51.068;-1.780;2023-10-13T11:41:07;11.40;;;1.85;;
65182;SDS011;51771;51.068;-1.780;2023-10-13T11:43:34;10.85;;;1.92;;
65182;SDS011;51771;51.068;-1.780;2023-10-13T11:46:10;15.43;;;3.03;;
65182;SDS011;51771;51.068;-1.780;2023-10-13T11:48:36;13.27;;;2.17;;
65182;SDS011;51771;51.068;-1.780;2023-10-13T11:51:02;8.50;;;1.85;;
65182;SDS011;51771;51.068;-1.780;2023-10-13T11:53:34;10.80;;;1.88;;
65182;SDS011;51771;51.068;-1.780;2023-10-13T11:56:00;5.88;;;1.42;;
65182;SDS011;51771;51.068;-1.780;2023-10-13T11:58:25;12.67;;;1.90;;
65182;SDS011;51771;51.068;-1.780;2023-10-13T12:00:50;11.00;;;1.77;;
65182;SDS011;51771;51.068;-1.780;2023-10-13T12:03:16;6.70;;;1.75;;
65182;SDS011;51771;51.068;-1.780;2023-10-13T12:05:59;9.20;;;1.98;;
65182;SDS011;51771;51.068;-1.780;2023-10-13T12:08:43;12.32;;;2.50;;
65182;SDS011;51771;51.068;-1.780;2023-10-13T12:11:14;9.52;;;2.05;;
65182;SDS011;51771;51.068;-1.780;2023-10-13T12:13:55;14.32;;;2.30;;
65182;SDS011;51771;51.068;-1.780;2023-10-13T12:16:20;11.45;;;1.90;;
65182;SDS011;51771;51.068;-1.780;2023-10-13T12:18:46;12.27;;;2.10;;
65182;SDS011;51771;51.068;-1.780;2023-10-13T12:21:18;17.50;;;2.22;;
65182;SDS011;51771;51.068;-1.780;2023-10-13T12:23:44;9.60;;;2.00;;
65182;SDS011;51771;51.068;-1.780;2023-10-13T12:26:10;14.30;;;2.13;;
65182;SDS011;51771;51.068;-1.780;2023-10-13T12:28:44;9.27;;;1.75;;
65182;SDS011;51771;51.068;-1.780;2023-10-13T12:31:16;12.35;;;1.90;;
65182;SDS011;51771;51.068;-1.780;2023-10-13T12:33:42;14.10;;;2.13;;
65182;SDS011;51771;51.068;-1.780;2023-10-13T12:36:08;9.93;;;1.70;;
65182;SDS011;51771;51.068;-1.780;2023-10-13T12:38:38;8.95;;;2.13;;
65182;SDS011;51771;51.068;-1.780;2023-10-13T12:41:04;6.65;;;1.60;;
65182;SDS011;51771;51.068;-1.780;2023-10-13T12:43:48;7.03;;;1.33;;
65182;SDS011;51771;51.068;-1.780;2023-10-13T12:46:36;8.85;;;1.40;;
65182;SDS011;51771;51.068;-1.780;2023-10-13T12:49:20;11.45;;;1.83;;
65182;SDS011;51771;51.068;-1.780;2023-10-13T12:52:04;8.25;;;1.63;;
65182;SDS011;51771;51.068;-1.780;2023-10-13T12:54:30;10.70;;;1.90;;
65182;SDS011;51771;51.068;-1.780;2023-10-13T12:57:04;8.85;;;2.10;;
65182;SDS011;51771;51.068;-1.780;2023-10-13T12:59:34;11.20;;;1.55;;
65182;SDS011;51771;51.068;-1.780;2023-10-13T13:01:59;13.50;;;1.80;;
65182;SDS011;51771;51.068;-1.780;2023-10-13T13:04:24;10.82;;;2.45;;
65182;SDS011;51771;51.068;-1.780;2023-10-13T13:06:56;11.23;;;1.60;;
65182;SDS011;51771;51.068;-1.780;2023-10-13T13:09:22;11.90;;;2.07;;
65182;SDS011;51771;51.068;-1.780;2023-10-13T13:11:53;16.45;;;2.15;;
65182;SDS011;51771;51.068;-1.780;2023-10-13T13:14:22;13.70;;;1.80;;
65182;SDS011;51771;51.068;-1.780;2023-10-13T13:16:47;11.02;;;1.90;;
65182;SDS011;51771;51.068;-1.780;2023-10-13T13:19:13;11.23;;;1.88;;
65182;SDS011;51771;51.068;-1.780;2023-10-13T13:21:39;7.57;;;1.80;;
65182;SDS011;51771;51.068;-1.780;2023-10-13T13:24:05;11.05;;;1.80;;
65182;SDS011;51771;51.068;-1.780;2023-10-13T13:26:38;13.95;;;1.88;;
65182;SDS011;51771;51.068;-1.780;2023-10-13T13:29:05;6.35;;;1.27;;
65182;SDS011;51771;51.068;-1.780;2023-10-13T13:31:34;9.88;;;1.50;;
65182;SDS011;51771;51.068;-1.780;2023-10-13T13:34:09;9.63;;;1.40;;
65182;SDS011;51771;51.068;-1.780;2023-10-13T13:36:41;6.05;;;1.20;;
65182;SDS011;51771;51.068;-1.780;2023-10-13T13:39:10;8.05;;;1.83;;
65182;SDS011;51771;51.068;-1.780;2023-10-13T13:41:35;7.55;;;1.50;;
65182;SDS011;51771;51.068;-1.780;2023-10-13T13:44:00;8.80;;;1.83;;
65182;SDS011;51771;51.068;-1.780;2023-10-13T13:46:38;6.70;;;1.42;;
65182;SDS011;51771;51.068;-1.780;2023-10-13T13:49:06;8.73;;;1.40;;
65182;SDS011;51771;51.068;-1.780;2023-10-13T13:51:42;6.20;;;1.45;;
65182;SDS011;51771;51.068;-1.780;2023-10-13T13:54:08;4.35;;;0.90;;
65182;SDS011;51771;51.068;-1.780;2023-10-13T13:56:33;4.65;;;1.08;;
65182;SDS011;51771;51.068;-1.780;2023-10-13T13:59:03;5.50;;;1.38;;
65182;SDS011;51771;51.068;-1.780;2023-10-13T14:01:33;7.38;;;1.08;;
65182;SDS011;51771;51.068;-1.780;2023-10-13T14:04:02;6.90;;;1.25;;
65182;SDS011;51771;51.068;-1.780;2023-10-13T14:06:28;2.08;;;0.65;;
65182;SDS011;51771;51.068;-1.780;2023-10-13T14:08:54;4.50;;;1.15;;
65182;SDS011;51771;51.068;-1.780;2023-10-13T14:11:21;8.25;;;1.00;;
65182;SDS011;51771;51.068;-1.780;2023-10-13T14:14:07;6.78;;;1.10;;
65182;SDS011;51771;51.068;-1.780;2023-10-13T14:16:54;6.40;;;1.23;;
65182;SDS011;51771;51.068;-1.780;2023-10-13T14:19:27;3.05;;;0.80;;
65182;SDS011;51771;51.068;-1.780;2023-10-13T14:21:53;4.38;;;0.93;;
65182;SDS011;51771;51.068;-1.780;2023-10-13T14:24:21;7.65;;;1.05;;
65182;SDS011;51771;51.068;-1.780;2023-10-13T14:27:06;8.32;;;1.17;;
65182;SDS011;51771;51.068;-1.780;2023-10-13T14:29:42;5.05;;;0.95;;
65182;SDS011;51771;51.068;-1.780;2023-10-13T14:32:08;10.17;;;1.70;;
65182;SDS011;51771;51.068;-1.780;2023-10-13T14:34:41;5.47;;;1.23;;
65182;SDS011;51771;51.068;-1.780;2023-10-13T14:37:07;11.45;;;1.35;;
65182;SDS011;51771;51.068;-1.780;2023-10-13T14:39:32;9.43;;;1.25;;
65182;SDS011;51771;51.068;-1.780;2023-10-13T14:42:00;7.63;;;1.85;;
65182;SDS011;51771;51.068;-1.780;2023-10-13T14:44:25;7.30;;;1.25;;
65182;SDS011;51771;51.068;-1.780;2023-10-13T14:46:52;10.52;;;1.50;;
65182;SDS011;51771;51.068;-1.780;2023-10-13T14:49:19;12.55;;;1.83;;
65182;SDS011;51771;51.068;-1.780;2023-10-13T14:51:45;8.97;;;1.80;;
65182;SDS011;51771;51.068;-1.780;2023-10-13T14:54:10;11.67;;;1.47;;
65182;SDS011;51771;51.068;-1.780;2023-10-13T14:56:35;13.55;;;1.63;;
65182;SDS011;51771;51.068;-1.780;2023-10-13T14:59:00;10.53;;;1.63;;
65182;SDS011;51771;51.068;-1.780;2023-10-13T15:01:26;5.45;;;1.10;;
65182;SDS011;51771;51.068;-1.780;2023-10-13T15:03:52;9.70;;;1.33;;
65182;SDS011;51771;51.068;-1.780;2023-10-13T15:06:23;10.13;;;1.48;;
65182;SDS011;51771;51.068;-1.780;2023-10-13T15:08:55;15.13;;;1.88;;
65182;SDS011;51771;51.068;-1.780;2023-10-13T15:11:21;6.07;;;0.90;;
65182;SDS011;51771;51.068;-1.780;2023-10-13T15:13:51;7.35;;;1.33;;
65182;SDS011;51771;51.068;-1.780;2023-10-13T15:16:18;13.32;;;1.52;;